createdAt,value
2023-10-18T00:02:17.019Z,1010.75
2023-10-18T00:05:24.205Z,1010.68
2023-10-18T00:08:31.685Z,1010.69
2023-10-18T00:11:40.145Z,1010.64
2023-10-18T00:14:47.529Z,1010.65
2023-10-18T00:17:55.027Z,1010.66
2023-10-18T00:21:01.723Z,1010.68
2023-10-18T00:24:02.343Z,1010.63
2023-10-18T00:27:08.946Z,1010.64
2023-10-18T00:30:16.706Z,1010.59
2023-10-18T00:33:26.140Z,1010.61
2023-10-18T00:36:33.703Z,1010.56
2023-10-18T00:39:40.147Z,1010.50
2023-10-18T00:42:48.999Z,1010.48
2023-10-18T00:45:56.825Z,1010.49
2023-10-18T00:49:04.268Z,1010.39
2023-10-18T00:52:12.559Z,1010.45
2023-10-18T00:55:19.654Z,1010.44
2023-10-18T00:58:26.211Z,1010.50
2023-10-18T01:01:34.182Z,1010.37
2023-10-18T01:04:42.846Z,1010.34
2023-10-18T01:07:50.111Z,1010.33
2023-10-18T01:10:57.251Z,1010.37
2023-10-18T01:14:05.990Z,1010.36
2023-10-18T01:17:12.917Z,1010.30
2023-10-18T01:20:20.972Z,1010.36
2023-10-18T01:23:29.876Z,1010.27
2023-10-18T01:26:37.304Z,1010.28
2023-10-18T01:29:44.643Z,1010.23
2023-10-18T01:32:53.793Z,1010.16
2023-10-18T01:36:00.318Z,1010.10
2023-10-18T01:39:07.975Z,1010.12
2023-10-18T01:42:16.913Z,1010.02
2023-10-18T01:45:23.663Z,1009.96
2023-10-18T01:48:31.823Z,1009.92
2023-10-18T01:51:39.450Z,1009.95
2023-10-18T01:54:47.666Z,1009.93
2023-10-18T01:57:55.506Z,1009.89
2023-10-18T02:01:02.906Z,1009.91
2023-10-18T02:04:11.347Z,1009.76
2023-10-18T02:07:19.044Z,1009.76
2023-10-18T02:10:27.585Z,1009.78
2023-10-18T02:13:36.534Z,1009.78
2023-10-18T02:16:44.089Z,1009.82
2023-10-18T02:19:52.045Z,1009.82
2023-10-18T02:23:00.646Z,1009.84
2023-10-18T02:26:08.233Z,1009.83
2023-10-18T02:29:14.882Z,1009.76
2023-10-18T02:32:22.193Z,1009.75
2023-10-18T02:35:31.038Z,1009.74
2023-10-18T02:38:37.641Z,1009.77
2023-10-18T02:41:44.941Z,1009.79
2023-10-18T02:44:53.612Z,1009.75
2023-10-18T02:48:00.195Z,1009.69
2023-10-18T02:51:07.421Z,1009.76
2023-10-18T02:54:16.330Z,1009.71
2023-10-18T02:57:23.150Z,1009.64
2023-10-18T03:00:30.414Z,1009.60
2023-10-18T03:03:38.799Z,1009.56
2023-10-18T03:06:46.455Z,1009.52
2023-10-18T03:09:54.293Z,1009.55
2023-10-18T03:13:01.232Z,1009.54
2023-10-18T03:16:09.695Z,1009.41
2023-10-18T03:19:16.852Z,1009.33
2023-10-18T03:22:24.409Z,1009.43
2023-10-18T03:25:33.074Z,1009.45
2023-10-18T03:28:40.852Z,1009.41
2023-10-18T03:31:47.445Z,1009.38
2023-10-18T03:34:56.540Z,1009.31
2023-10-18T03:38:04.256Z,1009.35
2023-10-18T03:41:11.748Z,1009.34
2023-10-18T03:44:20.116Z,1009.30
2023-10-18T03:47:27.826Z,1009.25
2023-10-18T03:50:34.546Z,1009.25
2023-10-18T03:53:42.110Z,1009.20
2023-10-18T03:56:51.201Z,1009.15
2023-10-18T03:59:57.831Z,1009.12
2023-10-18T04:03:05.133Z,1009.08
2023-10-18T04:06:13.553Z,1009.06
2023-10-18T04:09:20.916Z,1009.04
2023-10-18T04:12:27.861Z,1009.02
2023-10-18T04:15:36.953Z,1009.01
2023-10-18T04:18:44.109Z,1008.95
2023-10-18T04:21:51.038Z,1008.92
2023-10-18T04:24:59.981Z,1008.95
2023-10-18T04:28:06.652Z,1008.92
2023-10-18T04:31:14.014Z,1008.89
2023-10-18T04:34:22.392Z,1008.81
2023-10-18T04:37:29.869Z,1008.74
2023-10-18T04:40:36.435Z,1008.63
2023-10-18T04:43:43.937Z,1008.63
2023-10-18T04:46:52.298Z,1008.60
2023-10-18T04:49:58.849Z,1008.64
2023-10-18T04:53:06.090Z,1008.62
2023-10-18T04:56:14.679Z,1008.65
2023-10-18T04:59:21.585Z,1008.69
2023-10-18T05:02:29.420Z,1008.67
2023-10-18T05:05:37.812Z,1008.65
2023-10-18T05:08:44.752Z,1008.66
2023-10-18T05:11:51.671Z,1008.75
2023-10-18T05:15:00.308Z,1008.75
2023-10-18T05:18:08.214Z,1008.76
2023-10-18T05:21:15.127Z,1008.69
2023-10-18T05:24:22.574Z,1008.70
2023-10-18T05:27:31.076Z,1008.66
2023-10-18T05:30:38.288Z,1008.66
2023-10-18T05:33:45.276Z,1008.69
2023-10-18T05:36:53.952Z,1008.70
2023-10-18T05:40:01.803Z,1008.74
2023-10-18T05:43:08.721Z,1008.78
2023-10-18T05:46:17.646Z,1008.78
2023-10-18T05:49:28.275Z,1008.80
2023-10-18T05:52:27.119Z,1008.80
2023-10-18T05:55:35.469Z,1008.75
2023-10-18T05:58:42.368Z,1008.67
2023-10-18T06:01:49.166Z,1008.59
2023-10-18T06:04:55.958Z,1008.66
2023-10-18T06:08:04.411Z,1008.58
2023-10-18T06:11:11.631Z,1008.47
2023-10-18T06:14:18.561Z,1008.42
2023-10-18T06:17:27.551Z,1008.39
2023-10-18T06:20:34.996Z,1008.42
2023-10-18T06:23:42.264Z,1008.35
2023-10-18T06:26:51.959Z,1008.32
2023-10-18T06:29:58.469Z,1008.32
2023-10-18T06:33:05.535Z,1008.31
2023-10-18T06:36:14.024Z,1008.33
2023-10-18T06:39:21.371Z,1008.33
2023-10-18T06:42:28.441Z,1008.26
2023-10-18T06:45:36.229Z,1008.26
2023-10-18T06:48:55.966Z,1008.26
2023-10-18T06:51:49.070Z,1008.20
2023-10-18T06:54:56.844Z,1008.22
2023-10-18T06:58:05.519Z,1008.16
2023-10-18T07:01:12.432Z,1008.13
2023-10-18T07:04:19.943Z,1008.14
2023-10-18T07:07:28.394Z,1008.10
2023-10-18T07:10:35.005Z,1008.15
2023-10-18T07:13:42.943Z,1008.13
2023-10-18T07:16:51.347Z,1008.08
2023-10-18T07:19:58.437Z,1008.03
2023-10-18T07:23:06.234Z,1008.01
2023-10-18T07:26:13.386Z,1007.89
2023-10-18T07:29:21.969Z,1007.86
2023-10-18T07:32:29.212Z,1007.75
2023-10-18T07:35:36.677Z,1007.73
2023-10-18T07:38:44.674Z,1007.74
2023-10-18T07:41:51.855Z,1007.72
2023-10-18T07:44:59.206Z,1007.68
2023-10-18T07:48:07.708Z,1007.65
2023-10-18T07:51:14.744Z,1007.57
2023-10-18T07:54:21.986Z,1007.46
2023-10-18T07:57:30.994Z,1007.42
2023-10-18T08:00:37.946Z,1007.37
2023-10-18T08:03:45.421Z,1007.28
2023-10-18T08:06:53.936Z,1007.25
2023-10-18T08:10:01.203Z,1007.22
2023-10-18T08:13:08.247Z,1007.19
2023-10-18T08:16:15.254Z,1007.21
2023-10-18T08:19:24.198Z,1007.19
2023-10-18T08:22:31.731Z,1007.14
2023-10-18T08:25:38.897Z,1007.06
2023-10-18T08:28:47.535Z,1007.10
2023-10-18T08:30:46.025Z,1007.14
2023-10-18T08:33:53.262Z,1007.15
2023-10-18T08:36:59.914Z,1007.12
2023-10-18T08:40:09.146Z,1007.08
2023-10-18T08:43:15.974Z,1007.09
2023-10-18T08:46:23.069Z,1007.16
2023-10-18T08:49:31.296Z,1007.07
2023-10-18T08:52:38.489Z,1007.07
2023-10-18T08:55:45.859Z,1007.13
2023-10-18T08:58:54.754Z,1007.04
2023-10-18T09:02:02.051Z,1006.98
2023-10-18T09:05:10.205Z,1006.96
2023-10-18T09:08:20.009Z,1006.92
2023-10-18T09:11:27.114Z,1006.97
2023-10-18T09:14:34.263Z,1006.95
2023-10-18T09:17:42.842Z,1006.87
2023-10-18T09:20:50.286Z,1006.82
2023-10-18T09:23:57.722Z,1006.85
2023-10-18T09:27:05.392Z,1006.79
2023-10-18T09:30:13.656Z,1006.76
2023-10-18T09:33:20.703Z,1006.75
2023-10-18T09:36:28.091Z,1006.71
2023-10-18T09:39:36.592Z,1006.66
2023-10-18T09:42:43.798Z,1006.53
2023-10-18T09:45:50.752Z,1006.56
2023-10-18T09:49:00.269Z,1006.45
2023-10-18T09:52:07.822Z,1006.37
2023-10-18T09:55:14.319Z,1006.38
2023-10-18T09:58:23.027Z,1006.32
2023-10-18T10:01:30.125Z,1006.32
2023-10-18T10:04:37.661Z,1006.29
2023-10-18T10:07:46.780Z,1006.27
2023-10-18T10:10:45.848Z,1006.26
2023-10-18T10:13:52.328Z,1006.23
2023-10-18T10:17:00.132Z,1006.21
2023-10-18T10:20:09.083Z,1006.16
2023-10-18T10:23:16.111Z,1006.10
2023-10-18T10:26:31.755Z,1006.04
2023-10-18T10:29:28.984Z,1006.06
2023-10-18T10:32:36.947Z,1006.05
2023-10-18T10:35:43.904Z,1005.91
2023-10-18T10:38:52.639Z,1005.90
2023-10-18T10:41:59.246Z,1005.86
2023-10-18T10:45:08.275Z,1005.88
2023-10-18T10:48:15.511Z,1005.82
2023-10-18T10:51:24.022Z,1005.74
2023-10-18T10:54:31.464Z,1005.76
2023-10-18T10:57:38.115Z,1005.87
2023-10-18T11:00:46.663Z,1005.64
2023-10-18T11:03:53.612Z,1005.61
2023-10-18T11:07:00.746Z,1005.60
2023-10-18T11:10:09.575Z,1005.57
2023-10-18T11:13:16.688Z,1005.52
2023-10-18T11:16:24.388Z,1005.50
2023-10-18T11:19:33.367Z,1005.47
2023-10-18T11:22:40.594Z,1005.46
2023-10-18T11:25:48.151Z,1005.37
2023-10-18T11:28:54.766Z,1005.35
2023-10-18T11:32:03.448Z,1005.27
2023-10-18T11:35:11.205Z,1005.23
2023-10-18T11:38:17.923Z,1005.16
2023-10-18T11:41:26.976Z,1004.98
2023-10-18T11:44:34.260Z,1004.96
2023-10-18T11:47:43.417Z,1004.85
2023-10-18T11:50:42.879Z,1004.81
2023-10-18T11:53:50.151Z,1004.67
2023-10-18T11:56:57.483Z,1004.61
2023-10-18T12:00:06.382Z,1004.50
2023-10-18T12:03:14.275Z,1004.45
2023-10-18T12:06:22.982Z,1004.38
2023-10-18T12:09:30.653Z,1004.32
2023-10-18T12:12:39.147Z,1004.23
2023-10-18T12:15:46.753Z,1004.18
2023-10-18T12:18:54.140Z,1004.10
2023-10-18T12:22:02.659Z,1004.02
2023-10-18T12:25:09.564Z,1004.00
2023-10-18T12:28:16.885Z,1003.98
2023-10-18T12:31:25.408Z,1003.85
2023-10-18T12:34:33.517Z,1003.73
2023-10-18T12:37:40.703Z,1003.68
2023-10-18T12:40:49.497Z,1003.61
2023-10-18T12:43:56.356Z,1003.57
2023-10-18T12:47:03.696Z,1003.53
2023-10-18T12:50:11.677Z,1003.52
2023-10-18T12:53:19.104Z,1003.46
2023-10-18T12:56:26.475Z,1003.44
2023-10-18T12:59:33.552Z,1003.36
2023-10-18T13:02:42.650Z,1003.46
2023-10-18T13:05:50.128Z,1003.30
2023-10-18T13:08:57.336Z,1003.27
2023-10-18T13:12:06.042Z,1003.18
2023-10-18T13:15:13.459Z,1003.15
2023-10-18T13:18:20.828Z,1003.20
2023-10-18T13:21:29.618Z,1003.22
2023-10-18T13:24:36.988Z,1003.26
2023-10-18T13:27:44.039Z,1003.22
2023-10-18T13:30:53.123Z,1003.15
2023-10-18T13:34:00.228Z,1003.18
2023-10-18T13:37:07.257Z,1003.08
2023-10-18T13:40:14.349Z,1003.01
2023-10-18T13:43:23.470Z,1002.94
2023-10-18T13:46:30.090Z,1002.94
2023-10-18T13:49:37.435Z,1002.85
2023-10-18T13:52:46.149Z,1002.70
2023-10-18T13:55:53.082Z,1002.75
2023-10-18T13:59:00.503Z,1002.65
2023-10-18T14:02:09.600Z,1002.55
2023-10-18T14:05:16.274Z,1002.45
2023-10-18T14:08:23.439Z,1002.46
2023-10-18T14:11:32.023Z,1002.45
2023-10-18T14:14:38.713Z,1002.39
2023-10-18T14:17:46.186Z,1002.26
2023-10-18T14:20:53.760Z,1002.27
2023-10-18T14:24:01.787Z,1002.20
2023-10-18T14:27:09.610Z,1002.15
2023-10-18T14:30:17.396Z,1002.12
2023-10-18T14:33:33.807Z,1002.07
2023-10-18T14:36:30.541Z,1002.02
2023-10-18T14:39:39.736Z,1002.01
2023-10-18T14:42:48.432Z,1002.00
2023-10-18T14:45:55.837Z,1001.95
2023-10-18T14:49:03.217Z,1001.91
2023-10-18T14:52:11.558Z,1001.86
2023-10-18T14:55:18.765Z,1001.84
2023-10-18T14:58:26.074Z,1001.75
2023-10-18T15:01:33.922Z,1001.71
2023-10-18T15:04:42.402Z,1001.58
2023-10-18T15:07:49.601Z,1001.60
2023-10-18T15:10:56.597Z,1001.61
2023-10-18T15:14:05.500Z,1001.62
2023-10-18T15:17:13.042Z,1001.60
2023-10-18T15:20:20.168Z,1001.57
2023-10-18T15:23:28.535Z,1001.54
2023-10-18T15:26:35.571Z,1001.51
2023-10-18T15:29:42.877Z,1001.49
2023-10-18T15:32:51.505Z,1001.43
2023-10-18T15:35:58.866Z,1001.34
2023-10-18T15:39:06.382Z,1001.29
2023-10-18T15:42:14.880Z,1001.22
2023-10-18T15:45:22.044Z,1001.16
2023-10-18T15:48:29.969Z,1001.13
2023-10-18T15:51:36.910Z,1001.15
2023-10-18T15:54:46.237Z,1001.15
2023-10-18T15:57:53.146Z,1001.14
2023-10-18T16:01:01.106Z,1001.12
2023-10-18T16:04:09.772Z,1001.06
2023-10-18T16:07:18.099Z,1001.05
2023-10-18T16:10:25.460Z,1001.08
2023-10-18T16:13:34.336Z,1001.06
2023-10-18T16:16:41.696Z,1000.98
2023-10-18T16:19:49.707Z,1001.04
2023-10-18T16:22:58.247Z,1001.00
2023-10-18T16:26:06.212Z,1001.00
2023-10-18T16:29:13.828Z,1001.01
2023-10-18T16:32:21.697Z,1000.98
2023-10-18T16:35:32.343Z,1000.97
2023-10-18T16:38:39.816Z,1000.98
2023-10-18T16:41:47.234Z,1000.89
2023-10-18T16:44:56.547Z,1000.84
2023-10-18T16:48:04.294Z,1000.77
2023-10-18T16:51:12.077Z,1000.78
2023-10-18T16:54:21.099Z,1000.69
2023-10-18T16:57:29.201Z,1000.64
2023-10-18T17:00:35.819Z,1000.64
2023-10-18T17:03:44.552Z,1000.67
2023-10-18T17:06:52.812Z,1000.67
2023-10-18T17:09:59.714Z,1000.58
2023-10-18T17:13:07.751Z,1000.46
2023-10-18T17:16:16.640Z,1000.38
2023-10-18T17:19:23.589Z,1000.33
2023-10-18T17:22:31.014Z,1000.28
2023-10-18T17:25:40.413Z,1000.20
2023-10-18T17:28:48.341Z,1000.14
2023-10-18T17:31:55.938Z,1000.22
2023-10-18T17:35:06.014Z,1000.18
2023-10-18T17:38:12.643Z,1000.15
2023-10-18T17:41:20.003Z,1000.17
2023-10-18T17:44:28.412Z,1000.03
2023-10-18T17:47:35.836Z,1000.00
2023-10-18T17:50:43.445Z,999.99
2023-10-18T17:53:51.096Z,999.90
2023-10-18T17:56:59.986Z,999.75
2023-10-18T18:00:08.124Z,999.61
2023-10-18T18:03:16.056Z,999.61
2023-10-18T18:06:24.772Z,999.56
2023-10-18T18:09:32.801Z,999.59
2023-10-18T18:12:39.787Z,999.58
2023-10-18T18:15:49.121Z,999.52
2023-10-18T18:18:56.791Z,999.46
2023-10-18T18:22:04.113Z,999.44
2023-10-18T18:25:13.184Z,999.39
2023-10-18T18:28:22.055Z,999.36
2023-10-18T18:31:28.997Z,999.22
2023-10-18T18:34:38.909Z,999.16
2023-10-18T18:37:46.220Z,999.13
2023-10-18T18:40:55.084Z,999.13
2023-10-18T18:44:02.263Z,999.08
2023-10-18T18:47:10.917Z,999.03
2023-10-18T18:50:18.143Z,998.95
2023-10-18T18:53:25.423Z,998.86
2023-10-18T18:56:35.123Z,998.89
2023-10-18T18:59:41.761Z,998.87
2023-10-18T19:02:49.467Z,998.81
2023-10-18T19:05:57.986Z,998.77
2023-10-18T19:09:04.743Z,998.73
2023-10-18T19:12:12.335Z,998.74
2023-10-18T19:15:22.590Z,998.61
2023-10-18T19:18:29.789Z,998.64
2023-10-18T19:21:37.314Z,998.57
2023-10-18T19:24:44.576Z,998.52
2023-10-18T19:27:53.719Z,998.37
2023-10-18T19:31:01.931Z,998.28
2023-10-18T19:34:09.442Z,998.26
2023-10-18T19:37:18.213Z,998.13
2023-10-18T19:40:26.095Z,998.12
2023-10-18T19:43:33.394Z,998.01
2023-10-18T19:46:42.528Z,997.89
2023-10-18T19:49:49.794Z,997.89
2023-10-18T19:52:57.817Z,997.86
2023-10-18T19:56:06.547Z,997.79
2023-10-18T19:59:13.819Z,997.76
2023-10-18T20:02:20.943Z,997.70
2023-10-18T20:05:29.079Z,997.72
2023-10-18T20:08:38.064Z,997.65
2023-10-18T20:11:46.049Z,997.58
2023-10-18T20:14:53.480Z,997.60
2023-10-18T20:18:02.052Z,997.55
2023-10-18T20:21:09.470Z,997.45
2023-10-18T20:24:16.812Z,997.37
2023-10-18T20:27:25.177Z,997.42
2023-10-18T20:30:32.011Z,997.28
2023-10-18T20:33:38.675Z,997.32
2023-10-18T20:36:48.149Z,997.27
2023-10-18T20:39:57.230Z,997.32
2023-10-18T20:43:05.164Z,997.37
2023-10-18T20:46:14.520Z,997.32
2023-10-18T20:49:21.480Z,997.29
2023-10-18T20:52:28.633Z,997.32
2023-10-18T20:55:35.742Z,997.23
2023-10-18T20:58:45.277Z,997.25
2023-10-18T21:01:52.490Z,997.24
2023-10-18T21:05:00.137Z,997.15
2023-10-18T21:08:09.261Z,996.99
2023-10-18T21:11:16.728Z,996.99
2023-10-18T21:14:24.580Z,996.90
2023-10-18T21:17:33.001Z,996.82
2023-10-18T21:20:41.059Z,996.76
2023-10-18T21:23:48.800Z,996.60
2023-10-18T21:26:57.092Z,996.66
2023-10-18T21:30:04.068Z,996.55
2023-10-18T21:33:12.136Z,996.49
2023-10-18T21:36:18.901Z,996.40
2023-10-18T21:39:27.944Z,996.33
2023-10-18T21:42:35.057Z,996.29
2023-10-18T21:45:42.312Z,996.22
2023-10-18T21:48:51.461Z,996.17
2023-10-18T21:51:59.050Z,995.98
2023-10-18T21:55:06.425Z,996.07
2023-10-18T21:58:15.938Z,996.03
2023-10-18T22:01:24.115Z,996.01
2023-10-18T22:04:31.813Z,995.91
2023-10-18T22:07:40.864Z,995.78
2023-10-18T22:10:47.480Z,995.83
2023-10-18T22:13:55.339Z,995.78
2023-10-18T22:17:02.195Z,995.79
2023-10-18T22:20:10.331Z,995.66
2023-10-18T22:23:18.266Z,995.52
2023-10-18T22:26:25.113Z,995.43
2023-10-18T22:29:34.181Z,995.33
2023-10-18T22:32:41.734Z,995.35
2023-10-18T22:35:48.944Z,995.27
2023-10-18T22:38:57.124Z,995.22
2023-10-18T22:42:04.629Z,995.19
2023-10-18T22:45:11.762Z,995.01
2023-10-18T22:48:20.096Z,994.97
2023-10-18T22:51:27.815Z,994.93
2023-10-18T22:54:34.984Z,994.94
2023-10-18T22:57:41.922Z,994.90
2023-10-18T23:00:51.114Z,994.76
2023-10-18T23:03:58.711Z,994.82
2023-10-18T23:07:05.649Z,994.81
2023-10-18T23:10:14.353Z,994.70
2023-10-18T23:13:21.166Z,994.66
2023-10-18T23:16:28.901Z,994.56
2023-10-18T23:19:37.643Z,994.54
2023-10-18T23:22:45.159Z,994.41
2023-10-18T23:25:53.139Z,994.42
2023-10-18T23:29:01.994Z,994.28
2023-10-18T23:32:08.866Z,994.30
2023-10-18T23:35:16.746Z,994.22
2023-10-18T23:38:25.700Z,994.16
2023-10-18T23:41:32.552Z,994.17
2023-10-18T23:44:39.798Z,994.14
2023-10-18T23:47:47.024Z,994.02
2023-10-18T23:50:55.989Z,994.03
2023-10-18T23:54:03.530Z,993.87
2023-10-18T23:57:10.855Z,993.80
